METAR LDZA 231000Z 25009KT 200V320 CAVOK 31/17 Q1014 NOSIG =
METAR LDZA 230930Z 22010KT 190V260 CAVOK 31/17 Q1014 NOSIG =
METAR LDZA 230900Z 24008KT 200V280 CAVOK 30/17 Q1014 NOSIG =
METAR LDZA 230830Z 24008KT 200V280 CAVOK 29/18 Q1014 NOSIG =
METAR LDZA 230800Z 23008KT 190V270 CAVOK 28/18 Q1014 NOSIG =
METAR LDZA 230730Z 24008KT CAVOK 27/17 Q1014 NOSIG =
METAR LDZA 230700Z 24004KT 200V280 CAVOK 26/17 Q1014 BECMG 23008KT =
METAR LDZA 230630Z VRB03KT CAVOK 23/18 Q1015 BECMG 23008KT =
METAR LDZA 230600Z 25008KT 9999 FEW070TCU 23/17 Q1014 TEMPO SHRA =
METAR LDZA 230530Z 27005KT 230V320 CAVOK 23/17 Q1014 BECMG 23008KT TEMPO SHRA FEW035TCU =
METAR LDZA 230500Z 27004KT 240V310 CAVOK 23/17 Q1013 BECMG 23008KT =
METAR LDZA 230430Z 21003KT 180V250 CAVOK 22/17 Q1013 NOSIG =
METAR LDZA 230400Z 24005KT 200V260 CAVOK 21/16 Q1013 BECMG 23007KT =
METAR LDZA 230330Z 28003KT 230V320 CAVOK 20/16 Q1012 NOSIG =
METAR LDZA 230300Z 23005KT CAVOK 21/16 Q1012 NOSIG =
METAR LDZA 230230Z VRB02KT CAVOK 20/16 Q1012 NOSIG =
METAR LDZA 230200Z 31003KT 240V330 CAVOK 21/16 Q1012 NOSIG =
METAR LDZA 230130Z 21006KT CAVOK 21/16 Q1012 NOSIG =
METAR LDZA 230100Z 21004KT CAVOK 20/17 Q1012 NOSIG =
METAR LDZA 230030Z 26005KT CAVOK 21/17 Q1013 NOSIG =
METAR LDZA 230000Z 26004KT CAVOK 21/17 Q1014 NOSIG =
METAR LDZA 222330Z 27004KT CAVOK 22/17 Q1014 NOSIG =
METAR LDZA 222300Z 25005KT CAVOK 22/17 Q1014 NOSIG =
METAR LDZA 222230Z 26005KT CAVOK 23/17 Q1014 NOSIG =
METAR LDZA 222200Z 25005KT CAVOK 24/18 Q1014 NOSIG =
METAR LDZA 222130Z 25006KT CAVOK 24/18 Q1014 NOSIG =
METAR LDZA 222100Z 23002KT CAVOK 24/18 Q1014 NOSIG =
METAR LDZA 222030Z 22005KT CAVOK 25/18 Q1013 NOSIG =
METAR LDZA 222000Z 23005KT CAVOK 26/18 Q1013 NOSIG =
METAR LDZA 221930Z 23008KT CAVOK 28/17 Q1013 NOSIG =
METAR LDZA 221900Z 20006KT CAVOK 28/18 Q1013 NOSIG =
METAR LDZA 221830Z 18005KT 150V220 CAVOK 30/17 Q1013 NOSIG =
METAR LDZA 221800Z 18003KT 090V220 CAVOK 32/17 Q1013 NOSIG =
METAR LDZA 221730Z 21004KT CAVOK 33/16 Q1012 NOSIG =
METAR LDZA 221700Z 21005KT CAVOK 33/15 Q1013 NOSIG =
METAR LDZA 221630Z 23004KT 190V250 CAVOK 34/14 Q1013 NOSIG =
METAR LDZA 221600Z 24007KT 220V280 CAVOK 34/14 Q1013 NOSIG =
METAR LDZA 221530Z 25005KT 230V290 CAVOK 34/14 Q1013 NOSIG =
METAR LDZA 221500Z 25006KT 210V280 CAVOK 34/13 Q1013 NOSIG =
METAR LDZA 221430Z 25003KT 190V330 CAVOK 35/13 Q1014 NOSIG =
METAR LDZA 221400Z 26005KT 220V320 CAVOK 34/15 Q1014 NOSIG =
METAR LDZA 221330Z 22006KT 150V290 CAVOK 34/14 Q1014 NOSIG =
METAR LDZA 221300Z 29004KT 190V350 CAVOK 33/14 Q1014 NOSIG =
METAR LDZA 221230Z VRB01KT CAVOK 33/15 Q1015 NOSIG =
METAR LDZA 221200Z VRB03KT CAVOK 33/15 Q1015 NOSIG =
METAR LDZA 221130Z VRB03KT CAVOK 32/14 Q1015 NOSIG =
METAR LDZA 221100Z 27004KT 160V330 CAVOK 31/14 Q1016 NOSIG =
METAR LDZA 221030Z 22004KT 120V290 CAVOK 31/15 Q1016 NOSIG =
METAR LDZA 221000Z 24004KT 180V320 CAVOK 30/16 Q1016 NOSIG =
METAR LDZA 220930Z 25003KT 170V320 CAVOK 29/16 Q1016 NOSIG =
METAR LDZA 220900Z VRB03KT CAVOK 28/16 Q1016 NOSIG =
METAR LDZA 220830Z 24003KT 160V300 CAVOK 26/16 Q1016 NOSIG =
METAR LDZA 220800Z 26004KT 200V340 CAVOK 25/18 Q1016 NOSIG =
METAR LDZA 220730Z 25004KT 210V010 CAVOK 24/17 Q1016 NOSIG =
METAR LDZA 220700Z 26004KT 200V320 CAVOK 23/17 Q1016 NOSIG =
METAR COR LDZA 220630Z 25005KT 220V280 CAVOK 22/17 Q1016 NOSIG =
METAR LDZA 220600Z 28005KT 240V340 CAVOK 21/17 Q1016 TEMPO 23006KT =
METAR LDZA 220530Z 25005KT 220V280 CAVOK 20/17 Q1016 TEMPO 23006KT =
METAR LDZA 220500Z VRB02KT CAVOK 18/17 Q1016 TEMPO 23006KT =
METAR LDZA 220430Z 22003KT CAVOK 17/16 Q1016 TEMPO 23006KT =
METAR LDZA 220400Z VRB02KT CAVOK 17/15 Q1016 NOSIG =
METAR LDZA 220330Z 23002KT CAVOK 16/15 Q1015 NOSIG =
METAR LDZA 220300Z 25003KT CAVOK 16/15 Q1015 NOSIG =
METAR LDZA 220230Z VRB02KT CAVOK 16/15 Q1015 NOSIG =
METAR LDZA 220200Z 20004KT 160V220 CAVOK 17/15 Q1015 NOSIG =
METAR LDZA 220130Z 20005KT CAVOK 17/15 Q1015 NOSIG =
METAR LDZA 220100Z 23003KT CAVOK 17/16 Q1016 NOSIG =
METAR LDZA 220030Z 25004KT CAVOK 18/16 Q1016 NOSIG =
METAR LDZA 220000Z 25006KT CAVOK 18/16 Q1016 NOSIG =
METAR LDZA 212330Z 26007KT 230V290 CAVOK 19/17 Q1016 NOSIG =
METAR LDZA 212300Z 24006KT CAVOK 19/16 Q1015 NOSIG =
METAR LDZA 212230Z 24004KT CAVOK 19/16 Q1015 NOSIG =